Flight Track Log - Related Links

Times and Time Zones

All times are in EDT time to prevent confusion due to time zone crossing. See the N361EA flight status page for this flight to view local times or setup timezone preferences in your user account.

Time Position Orientation Groundspeed Altitude Reporting Facility
EDT Latitude Longitude Course Direction KTS MPH feet Rate Location/Type
Thu 11:02:22 AM 46.4806 -120.3911 125° Southeast 185 213 5,600  Level Seattle Center
Thu 11:07:36 AM 46.3410 -120.1000 124° Southeast 168 193 16,900 1,983 Climbing FlightAware ADS-B
Thu 11:08:22 AM 46.3180 -120.0540 126° Southeast 214 246 17,500 419 Climbing FlightAware ADS-B
Thu 11:09:02 AM 46.2930 -120.0010 124° Southeast 255 293 17,500  Level FlightAware ADS-B
Thu 11:09:46 AM 46.2620 -119.9380 125° Southeast 262 302 17,500  Level FlightAware ADS-B
Thu 11:10:22 AM 46.2380 -119.8870 124° Southeast 260 299 17,500  Level FlightAware ADS-B
Thu 11:10:58 AM 46.2120 -119.8350 126° Southeast 261 300 17,500  Level FlightAware ADS-B
Thu 11:11:36 AM 46.1890 -119.7880 125° Southeast 261 300 17,500  Level FlightAware ADS-B
Thu 11:12:24 AM 46.1530 -119.7140 125° Southeast 259 298 17,500  Level FlightAware ADS-B
Thu 11:13:07 AM 46.1230 -119.6530 125° Southeast 261 300 17,500  Level FlightAware ADS-B
Thu 11:13:47 AM 46.0960 -119.5970 125° Southeast 260 299 17,500  Level FlightAware ADS-B
Thu 11:14:30 AM 46.0650 -119.5360 126° Southeast 261 300 17,500  Level FlightAware ADS-B
Thu 11:15:06 AM 46.0400 -119.4850 125° Southeast 261 300 17,500  Level FlightAware ADS-B
Thu 11:15:45 AM 46.0130 -119.4300 125° Southeast 260 299 17,500  Level FlightAware ADS-B
Thu 11:16:32 AM 45.9800 -119.3630 125° Southeast 256 295 17,500  Level FlightAware ADS-B
Thu 11:17:12 AM 45.9520 -119.3080 126° Southeast 257 296 17,500  Level FlightAware ADS-B
Thu 11:17:48 AM 45.9270 -119.2580 126° Southeast 257 296 17,500  Level FlightAware ADS-B
Thu 11:18:28 AM 45.9000 -119.2020 125° Southeast 256 295 17,500  Level FlightAware ADS-B
Thu 11:19:08 AM 45.8720 -119.1470 126° Southeast 257 296 17,500  Level FlightAware ADS-B
Thu 11:19:53 AM 45.8420 -119.0870 126° Southeast 257 296 17,500  Level FlightAware ADS-B
Thu 11:20:38 AM 45.8100 -119.0230 126° Southeast 257 296 17,500  Level FlightAware ADS-B
Thu 11:21:18 AM 45.7820 -118.9680 126° Southeast 258 297 17,500  Level FlightAware ADS-B
Thu 11:21:58 AM 45.7540 -118.9120 126° Southeast 258 297 17,500  Level FlightAware ADS-B
Thu 11:22:46 AM 45.7210 -118.8460 126° Southeast 257 296 17,500  Level FlightAware ADS-B
Thu 11:23:33 AM 45.6910 -118.7860 126° Southeast 257 296 17,500  Level FlightAware ADS-B
Thu 11:24:09 AM 45.6700 -118.7430 125° Southeast 257 296 17,500  Level FlightAware ADS-B
Thu 11:24:45 AM 45.6490 -118.7010 126° Southeast 257 296 17,500  Level FlightAware ADS-B
Thu 11:25:33 AM 45.6210 -118.6440 125° Southeast 257 296 17,500  Level FlightAware ADS-B
Thu 11:26:10 AM 45.6000 -118.6000 124° Southeast 257 296 17,500  Level FlightAware ADS-B
Thu 11:26:48 AM 45.5780 -118.5550 125° Southeast 257 296 17,500 -2,351 Level FlightAware ADS-B
Thu 11:27:47 AM 45.5086 -118.4303 125° Southeast 271 312 13,700 -3,864 Descending Seattle Center

Login

Don't have an account? Register now (free) for customized features, flight alerts, and more!